Airfield :
LOGIN :

Register | Disclaimer

   EN    FR    IT 

 










Legend :    VFR   Marginal VFR   IFR   Intensive IFR   Very Intensive IFR
Visi :
Ceiling :
>= 8 km
>= 3000ft
5 to 8 km
1000 to 3000 ft
1500m to 5 km
500 to 1000 ft
800 to 1500m
200 to 500 ft
< 800m
< 200 ft
Symbols :   Thunderstorms  Fog  Heavy snow  Heavy precipitations  Wind > 20 kt
SIGMETs :     Misc.  Thunderstorms  Icing  Turbulence  Mountain Waves  Volcanic Ashes






- Airport Elevation : 512 ft
- IATA code : URO


LFOP - Rouen Vallée de Seine

CURRENT METAR :
  • 181430Z AUTO VRB02KT CAVOK 12/00 Q1023 NOSIG

EXPIRED METARs :
  • 181400Z AUTO 07005KT 330V140 9999 FEW048 SCT054 13/03 Q1023 NOSIG
  • 181330Z AUTO 35005KT 310V040 9999 SCT049 11/01 Q1023 NOSIG
  • 181300Z AUTO VRB04KT 9999 FEW043 12/03 Q1023 NOSIG
  • 181230Z AUTO 03006KT 340V110 9999 BKN042 11/02 Q1023 NOSIG
  • 181200Z AUTO 03005KT 310V090 9999 FEW043 11/03 Q1023 NOSIG
  • 181130Z AUTO 35007KT 320V020 9999 BKN036 10/03 Q1023 NOSIG
  • 181100Z AUTO 02007KT 320V070 9999 BKN035 11/04 Q1023 NOSIG
  • 181030Z AUTO 04008KT 340V080 9999 SCT035 10/02 Q1022 NOSIG
  • 181000Z AUTO 03008KT 350V050 9999 FEW027 SCT033 09/04 Q1023 NOSIG

TAF TAF LFOP
Valid from the 18 at 12:00 until the 18 at 21:00 UTC


181100Z 1812/1821 34007KT 9999 SCT035
ATIS : +33 2 35 80 80 34
Met : +33 2 32 86 52 80



MET'MAP, your aeronautical weather chart ! - Copyright ORBIFLY December 2007 - Disclaimer

ORBIFLY MET'MAP TEAM :

Programming & Development : Alexandra Zaïnal
Original concept : Baudouin d'Aumeries
Technical & hardware support : Manuel Goepfert
Assistance : Marc-Olivier Méhu




SOURCES & CREDITS :

   NOAA